地図

経路データ

SID SEASON NUMBER BASIN SUBBASIN NAME ISO_TIME NATURE LAT LON WMO_WIND WMO_PRES WMO_AGENCY TRACK_TYPE DIST2LAND LANDFALL IFLAG USA_AGENCY USA_ATCF_ID USA_LAT USA_LON USA_RECORD USA_STATUS USA_WIND USA_PRES USA_SSHS USA_R34_NE USA_R34_SE USA_R34_SW USA_R34_NW USA_R50_NE USA_R50_SE USA_R50_SW USA_R50_NW USA_R64_NE USA_R64_SE USA_R64_SW USA_R64_NW USA_POCI USA_ROCI USA_RMW USA_EYE TOKYO_LAT TOKYO_LON TOKYO_GRADE TOKYO_WIND TOKYO_PRES TOKYO_R50_DIR TOKYO_R50_LONG TOKYO_R50_SHORT TOKYO_R30_DIR TOKYO_R30_LONG TOKYO_R30_SHORT TOKYO_LAND CMA_LAT CMA_LON CMA_CAT CMA_WIND CMA_PRES HKO_LAT HKO_LON HKO_CAT HKO_WIND HKO_PRES NEWDELHI_LAT NEWDELHI_LON NEWDELHI_GRADE NEWDELHI_WIND NEWDELHI_PRES NEWDELHI_CI NEWDELHI_DP NEWDELHI_POCI REUNION_LAT REUNION_LON REUNION_TYPE REUNION_WIND REUNION_PRES REUNION_TNUM REUNION_CI REUNION_RMW REUNION_R34_NE REUNION_R34_SE REUNION_R34_SW REUNION_R34_NW REUNION_R50_NE REUNION_R50_SE REUNION_R50_SW REUNION_R50_NW REUNION_R64_NE REUNION_R64_SE REUNION_R64_SW REUNION_R64_NW BOM_LAT BOM_LON BOM_TYPE BOM_WIND BOM_PRES BOM_TNUM BOM_CI BOM_RMW BOM_R34_NE BOM_R34_SE BOM_R34_SW BOM_R34_NW BOM_R50_NE BOM_R50_SE BOM_R50_SW BOM_R50_NW BOM_R64_NE BOM_R64_SE BOM_R64_SW BOM_R64_NW BOM_ROCI BOM_POCI BOM_EYE BOM_POS_METHOD BOM_PRES_METHOD NADI_LAT NADI_LON NADI_CAT NADI_WIND NADI_PRES WELLINGTON_LAT WELLINGTON_LON WELLINGTON_WIND WELLINGTON_PRES DS824_LAT DS824_LON DS824_STAGE DS824_WIND DS824_PRES TD9636_LAT TD9636_LON TD9636_STAGE TD9636_WIND TD9636_PRES TD9635_LAT TD9635_LON TD9635_WIND TD9635_PRES TD9635_ROCI NEUMANN_LAT NEUMANN_LON NEUMANN_CLASS NEUMANN_WIND NEUMANN_PRES MLC_LAT MLC_LON MLC_CLASS MLC_WIND MLC_PRES USA_GUST BOM_GUST BOM_GUST_PER REUNION_GUST REUNION_GUST_PER USA_SEAHGT USA_SEARAD_NE USA_SEARAD_SE USA_SEARAD_SW USA_SEARAD_NW STORM_SPEED STORM_DIR
1947188N15137 1947 42 WP MM DONNA 1947-07-06 12:00:00 NR 14.5000 136.900 main 1260 1186 __________O___ -1 14.5000 136.900 7 24 313
1947188N15137 1947 42 WP MM DONNA 1947-07-06 15:00:00 NR 15.3154 136.000 main 1186 1129 __________P___ -1 15.3154 136.000 7 24 313
1947188N15137 1947 42 WP MM DONNA 1947-07-06 18:00:00 NR 16.1134 135.106 main 1123 1078 __________P___ -1 16.1134 135.106 7 23 313
1947188N15137 1947 42 WP MM DONNA 1947-07-06 21:00:00 NR 16.8795 134.235 main 1074 1042 __________P___ -1 16.8795 134.235 7 22 312
1947188N15137 1947 42 WP MM DONNA 1947-07-07 00:00:00 NR 17.6000 133.400 main 1042 1009 __________O___ -1 17.6000 133.400 7 21 312
1947188N15137 1947 42 WP MM DONNA 1947-07-07 03:00:00 NR 18.2686 132.615 main 1004 976 __________P___ -1 18.2686 132.615 7 20 312
1947188N15137 1947 42 WP MM DONNA 1947-07-07 06:00:00 NR 18.9063 131.885 main 976 943 __________P___ -1 18.9063 131.885 7 18 314
1947188N15137 1947 42 WP MM DONNA 1947-07-07 09:00:00 NR 19.5408 131.212 main 943 893 __________P___ -1 19.5408 131.212 7 18 317
1947188N15137 1947 42 WP MM DONNA 1947-07-07 12:00:00 NR 20.2000 130.600 main 893 849 __________O___ -1 20.2000 130.600 7 17 319
1947188N15137 1947 42 WP MM DONNA 1947-07-07 15:00:00 NR 20.8518 130.004 main 853 828 __________P___ -1 20.8518 130.004 7 17 322
1947188N15137 1947 42 WP MM DONNA 1947-07-07 18:00:00 NR 21.5422 129.470 main 828 764 __________P___ -1 21.5422 129.470 7 17 327
1947188N15137 1947 42 WP MM DONNA 1947-07-07 21:00:00 NR 22.3115 129.001 main 764 698 __________P___ -1 22.3115 129.001 7 19 334
1947188N15137 1947 42 WP MM DONNA 1947-07-08 00:00:00 NR 23.2000 128.600 main 696 632 __________O___ -1 23.2000 128.600 7 22 339
1947188N15137 1947 42 WP MM DONNA 1947-07-08 03:00:00 NR 24.3251 128.156 main 630 604 __________P___ -1 24.3251 128.156 7 30 349
1947188N15137 1947 42 WP MM DONNA 1947-07-08 06:00:00 TS 26.0894 127.965 main 607 517 O________OPO__ jtwc_wp WP041947 26.8000 128.200 35 0 26.8000 128.200 TC 35 25.5565 127.788 7 26.8000 128.200 35 999 180 28 351
1947188N15137 1947 42 WP MM DONNA 1947-07-08 09:00:00 TS 27.1077 127.650 main 517 451 P________PPP__ WP041947 27.3230 127.717 35 0 27.3230 127.717 TC 35 26.7846 127.551 7 27.3230 127.717 35 999 180 19 347
1947188N15137 1947 42 WP MM DONNA 1947-07-08 12:00:00 TS 27.9000 127.500 main 451 376 O________OOO__ jtwc_wp WP041947 27.9000 127.500 35 0 27.9000 127.500 TC 35 27.9000 127.500 2 35 27.9000 127.500 35 1000 180 15 2
1947188N15137 1947 42 WP MM DONNA 1947-07-08 15:00:00 TS 28.6142 127.696 main 376 292 P________PPP__ WP041947 28.5700 127.729 35 0 28.5700 127.729 TC 35 28.7469 127.597 2 33 28.5700 127.729 35 999 180 15 21
1947188N15137 1947 42 WP MM DONNA 1947-07-08 18:00:00 TS 29.3430 128.125 main 292 210 O________OPO__ jtwc_wp WP041947 29.3000 128.200 35 0 29.3000 128.200 TC 35 29.4720 127.899 2 32 29.3000 128.200 35 999 180 16 26
1947188N15137 1947 42 WP MM DONNA 1947-07-08 21:00:00 TS 30.0594 128.517 main 203 113 P________PPP__ WP041947 30.0338 128.555 32 -1 30.0338 128.555 TC 32 30.1363 128.401 2 31 30.0338 128.555 32 999 150 17 30
1947188N15137 1947 42 WP MM DONNA 1947-07-09 00:00:00 TS 30.8000 129.100 main 113 36 O________OOO__ jtwc_wp WP041947 30.8000 129.100 30 -1 30.8000 129.100 TC 30 30.8000 129.100 1 30 30.8000 129.100 30 999 120 20 40
1947188N15137 1947 42 WP MM DONNA 1947-07-09 03:00:00 TS 31.5831 129.993 main 28 0 P________PPP__ WP041947 31.6077 129.995 30 -1 31.6077 129.995 TC 30 31.5092 129.987 1 30 31.6077 129.995 30 999 120 23 47
1947188N15137 1947 42 WP MM DONNA 1947-07-09 06:00:00 TS 32.3645 131.082 main 0 0 O________OPO__ jtwc_wp WP041947 32.4000 131.100 30 -1 32.4000 131.100 TC 30 32.2579 131.027 1 30 32.4000 131.100 30 999 120 24 51
1947188N15137 1947 42 WP MM DONNA 1947-07-09 09:00:00 TS 33.0999 132.229 main 21 0 P________PPP__ WP041947 33.1241 132.245 30 -1 33.1241 132.245 TC 30 33.0274 132.180 1 30 33.1241 132.245 30 1002 120 24 54
1947188N15137 1947 42 WP MM DONNA 1947-07-09 12:00:00 TS 33.8000 133.400 main 0 O________OOO__ jtwc_wp WP041947 33.8000 133.400 30 -1 33.8000 133.400 TC 30 33.8000 133.400 1 30 33.8000 133.400 30 1006 120 24 54

デジタル台風データ・検索

IBTrACS Databaseについて

本データベースは、米国NOAAが公開する1842年以降の世界の熱帯低気圧のベストトラックデータアーカイブInternational Best Track Archive for Climate Stewardship (IBTrACS)を、ウェブで閲覧しやすい形式に変換したものです。

最終更新日:2021-10-19